SVA934 EHAM-EBLG
Flight info
| Callsign | SVA934 |
|---|---|
| Flight time | 0h 39m |
| Altitude | 21000 |
| Route | WOODY3W WOODY N872 NIK NIK9X |
| Aircraft | B77L/H-SDE1E2E3FGHIJ2J3J4J5M1RWXY/LB1D1 |
Departure
| Time | 2026-05-05 18:50 |
|---|---|
| Airport | Amsterdam Airport Schiphol (EHAM) |
Arrival
| Time | 2026-05-05 19:30 |
|---|---|
| Airport | Liège Airport (EBLG) |
| Time | Latitude | Longitude | Altitude | Speed | Heading |
|---|---|---|---|---|---|
| 2026-05-05 18:47 | 52.30236 | 4.73933 | 3 ft | 0 kts | 217° |
| 2026-05-05 18:48 | 52.30236 | 4.73932 | 3 ft | 1 kts | 217° |
| 2026-05-05 18:49 | 52.30210 | 4.73900 | 3 ft | 8 kts | 219° |
| 2026-05-05 18:49 | 52.30193 | 4.73787 | 2 ft | 13 kts | 284° |
| 2026-05-05 18:49 | 52.30288 | 4.73746 | 0 ft | 21 kts | 4° |
| 2026-05-05 18:49 | 52.30537 | 4.73770 | 1 ft | 52 kts | 3° |
| 2026-05-05 18:50 | 52.31038 | 4.73822 | 4 ft | 109 kts | 4° |
| 2026-05-05 18:50 | 52.32153 | 4.73901 | 128 ft | 197 kts | 3° |
| 2026-05-05 18:50 | 52.33411 | 4.73957 | 1245 ft | 200 kts | 4° |
| 2026-05-05 18:50 | 52.34705 | 4.74033 | 3164 ft | 171 kts | 5° |
| 2026-05-05 18:51 | 52.35802 | 4.74098 | 4534 ft | 150 kts | 5° |
| 2026-05-05 18:51 | 52.36842 | 4.74163 | 5424 ft | 151 kts | 5° |
| 2026-05-05 18:51 | 52.37964 | 4.74242 | 5961 ft | 176 kts | 3° |
| 2026-05-05 18:51 | 52.39345 | 4.74339 | 5993 ft | 222 kts | 2° |
| 2026-05-05 18:52 | 52.40995 | 4.74453 | 6053 ft | 259 kts | 2° |
| 2026-05-05 18:52 | 52.42668 | 4.74568 | 6011 ft | 260 kts | 3° |
| 2026-05-05 18:52 | 52.44458 | 4.74691 | 6006 ft | 254 kts | 4° |
| 2026-05-05 18:52 | 52.46109 | 4.75510 | 6004 ft | 251 kts | 35° |
| 2026-05-05 18:53 | 52.47195 | 4.77682 | 6015 ft | 262 kts | 62° |
| 2026-05-05 18:53 | 52.47610 | 4.80518 | 6353 ft | 272 kts | 88° |
| 2026-05-05 18:53 | 52.47210 | 4.83579 | 7399 ft | 282 kts | 113° |
| 2026-05-05 18:53 | 52.46075 | 4.86276 | 8481 ft | 287 kts | 136° |
| 2026-05-05 18:54 | 52.44376 | 4.87828 | 9631 ft | 287 kts | 168° |
| 2026-05-05 18:54 | 52.42386 | 4.87887 | 10515 ft | 289 kts | 187° |
| 2026-05-05 18:54 | 52.40322 | 4.87433 | 10944 ft | 316 kts | 188° |
| 2026-05-05 18:54 | 52.38037 | 4.86876 | 11179 ft | 348 kts | 189° |
| 2026-05-05 18:55 | 52.35538 | 4.86262 | 11537 ft | 375 kts | 189° |
| 2026-05-05 18:55 | 52.32947 | 4.85640 | 12422 ft | 380 kts | 188° |
| 2026-05-05 18:55 | 52.30308 | 4.85024 | 12943 ft | 386 kts | 188° |
| 2026-05-05 18:55 | 52.27787 | 4.84452 | 13568 ft | 393 kts | 188° |
| 2026-05-05 18:56 | 52.25025 | 4.83836 | 14690 ft | 394 kts | 188° |
| 2026-05-05 18:56 | 52.22306 | 4.83237 | 15751 ft | 395 kts | 188° |
| 2026-05-05 18:56 | 52.19561 | 4.82634 | 16695 ft | 400 kts | 188° |
| 2026-05-05 18:56 | 52.16986 | 4.82071 | 17488 ft | 407 kts | 187° |
| 2026-05-05 18:57 | 52.14163 | 4.81455 | 18313 ft | 413 kts | 187° |
| 2026-05-05 18:57 | 52.11514 | 4.80879 | 19098 ft | 415 kts | 187° |
| 2026-05-05 18:57 | 52.09462 | 4.80432 | 19759 ft | 415 kts | 187° |
| 2026-05-05 18:57 | 52.06641 | 4.79818 | 20555 ft | 412 kts | 187° |
| 2026-05-05 18:58 | 52.03782 | 4.79196 | 20920 ft | 415 kts | 188° |
| 2026-05-05 18:58 | 52.01164 | 4.78628 | 20890 ft | 416 kts | 188° |
| 2026-05-05 18:58 | 51.98314 | 4.78010 | 20887 ft | 413 kts | 188° |
| 2026-05-05 18:58 | 51.95463 | 4.77372 | 20885 ft | 412 kts | 189° |
| 2026-05-05 18:59 | 51.92813 | 4.76401 | 20895 ft | 414 kts | 196° |
| 2026-05-05 18:59 | 51.90448 | 4.75136 | 20894 ft | 416 kts | 200° |
| 2026-05-05 18:59 | 51.88317 | 4.73644 | 20882 ft | 417 kts | 205° |
| 2026-05-05 18:59 | 51.85731 | 4.71580 | 20879 ft | 417 kts | 206° |
| 2026-05-05 19:00 | 51.83122 | 4.69506 | 20877 ft | 416 kts | 206° |
| 2026-05-05 19:00 | 51.80511 | 4.67447 | 20877 ft | 416 kts | 205° |
| 2026-05-05 19:00 | 51.78093 | 4.65552 | 20882 ft | 414 kts | 205° |
| 2026-05-05 19:00 | 51.75724 | 4.63703 | 20879 ft | 414 kts | 205° |
| 2026-05-05 19:01 | 51.73681 | 4.62113 | 20882 ft | 414 kts | 205° |
| 2026-05-05 19:01 | 51.71083 | 4.60093 | 20877 ft | 414 kts | 205° |
| 2026-05-05 19:01 | 51.68518 | 4.58103 | 20878 ft | 414 kts | 205° |
| 2026-05-05 19:01 | 51.65992 | 4.56146 | 20877 ft | 414 kts | 205° |
| 2026-05-05 19:02 | 51.63407 | 4.54146 | 20878 ft | 415 kts | 205° |
| 2026-05-05 19:02 | 51.60801 | 4.52131 | 20881 ft | 414 kts | 205° |
| 2026-05-05 19:02 | 51.58405 | 4.50282 | 20879 ft | 415 kts | 205° |
| 2026-05-05 19:02 | 51.57210 | 4.49360 | 20880 ft | 415 kts | 205° |
| 2026-05-05 19:03 | 51.55167 | 4.47786 | 20878 ft | 416 kts | 205° |
| 2026-05-05 19:03 | 51.52552 | 4.45772 | 20885 ft | 416 kts | 205° |
| 2026-05-05 19:03 | 51.49942 | 4.43765 | 20883 ft | 415 kts | 205° |
| 2026-05-05 19:03 | 51.47327 | 4.41756 | 20887 ft | 415 kts | 205° |
| 2026-05-05 19:04 | 51.44942 | 4.39926 | 20887 ft | 415 kts | 205° |
| 2026-05-05 19:04 | 51.42303 | 4.37904 | 20888 ft | 414 kts | 205° |
| 2026-05-05 19:04 | 51.40035 | 4.36171 | 20883 ft | 414 kts | 205° |
| 2026-05-05 19:04 | 51.37844 | 4.34526 | 20889 ft | 415 kts | 204° |
| 2026-05-05 19:05 | 51.35224 | 4.32574 | 20889 ft | 415 kts | 204° |
| 2026-05-05 19:05 | 51.32960 | 4.30889 | 20884 ft | 415 kts | 204° |
| 2026-05-05 19:05 | 51.30372 | 4.28956 | 20878 ft | 414 kts | 205° |
| 2026-05-05 19:05 | 51.27747 | 4.26957 | 20878 ft | 414 kts | 205° |
| 2026-05-05 19:06 | 51.25608 | 4.25321 | 20889 ft | 414 kts | 205° |
| 2026-05-05 19:06 | 51.23574 | 4.23770 | 20884 ft | 414 kts | 205° |
| 2026-05-05 19:06 | 51.21159 | 4.22004 | 20872 ft | 410 kts | 200° |
| 2026-05-05 19:06 | 51.18555 | 4.21150 | 20888 ft | 410 kts | 181° |
| 2026-05-05 19:07 | 51.15732 | 4.21739 | 20888 ft | 412 kts | 164° |
| 2026-05-05 19:07 | 51.13090 | 4.23491 | 20888 ft | 414 kts | 150° |
| 2026-05-05 19:07 | 51.10821 | 4.26252 | 20883 ft | 414 kts | 139° |
| 2026-05-05 19:07 | 51.08864 | 4.29118 | 20889 ft | 416 kts | 138° |
| 2026-05-05 19:08 | 51.06744 | 4.32264 | 20895 ft | 417 kts | 138° |
| 2026-05-05 19:08 | 51.05438 | 4.34199 | 20890 ft | 417 kts | 138° |
| 2026-05-05 19:08 | 51.03415 | 4.37175 | 20881 ft | 412 kts | 138° |
| 2026-05-05 19:08 | 51.01376 | 4.40146 | 20807 ft | 402 kts | 138° |
| 2026-05-05 19:09 | 50.99910 | 4.42266 | 20487 ft | 400 kts | 139° |
| 2026-05-05 19:09 | 50.97737 | 4.45390 | 19987 ft | 396 kts | 139° |
| 2026-05-05 19:09 | 50.95718 | 4.48279 | 19504 ft | 393 kts | 139° |
| 2026-05-05 19:09 | 50.93757 | 4.51079 | 19033 ft | 389 kts | 139° |
| 2026-05-05 19:10 | 50.91979 | 4.53614 | 18585 ft | 386 kts | 139° |
| 2026-05-05 19:10 | 50.89991 | 4.56444 | 18114 ft | 384 kts | 139° |
| 2026-05-05 19:10 | 50.88145 | 4.59070 | 17576 ft | 381 kts | 139° |
| 2026-05-05 19:10 | 50.87596 | 4.59851 | 17442 ft | 380 kts | 139° |
| 2026-05-05 19:11 | 50.85666 | 4.62592 | 16924 ft | 376 kts | 138° |
| 2026-05-05 19:11 | 50.84105 | 4.64806 | 16565 ft | 372 kts | 138° |
| 2026-05-05 19:11 | 50.82376 | 4.67260 | 16444 ft | 360 kts | 138° |
| 2026-05-05 19:11 | 50.80565 | 4.69829 | 16288 ft | 348 kts | 139° |
| 2026-05-05 19:12 | 50.78790 | 4.72341 | 16127 ft | 337 kts | 139° |
| 2026-05-05 19:12 | 50.77168 | 4.74633 | 16013 ft | 326 kts | 139° |
| 2026-05-05 19:12 | 50.76216 | 4.76026 | 15925 ft | 316 kts | 134° |
| 2026-05-05 19:12 | 50.75023 | 4.78894 | 15677 ft | 310 kts | 111° |
| 2026-05-05 19:13 | 50.74479 | 4.82140 | 15367 ft | 304 kts | 104° |
| 2026-05-05 19:13 | 50.74040 | 4.85401 | 15023 ft | 301 kts | 103° |
| 2026-05-05 19:13 | 50.73633 | 4.88445 | 14703 ft | 299 kts | 103° |
| 2026-05-05 19:13 | 50.73502 | 4.89422 | 14610 ft | 298 kts | 103° |
| 2026-05-05 19:14 | 50.73143 | 4.92076 | 14314 ft | 296 kts | 103° |
| 2026-05-05 19:14 | 50.72718 | 4.95203 | 14008 ft | 293 kts | 103° |
| 2026-05-05 19:14 | 50.72339 | 4.97976 | 13999 ft | 289 kts | 103° |
| 2026-05-05 19:14 | 50.71886 | 5.01255 | 13970 ft | 300 kts | 103° |
| 2026-05-05 19:15 | 50.71435 | 5.04499 | 13984 ft | 306 kts | 103° |
| 2026-05-05 19:15 | 50.71080 | 5.07044 | 13927 ft | 307 kts | 103° |
| 2026-05-05 19:15 | 50.70615 | 5.10366 | 13747 ft | 304 kts | 103° |
| 2026-05-05 19:15 | 50.70381 | 5.12026 | 13573 ft | 303 kts | 103° |
| 2026-05-05 19:16 | 50.70026 | 5.14551 | 13219 ft | 302 kts | 104° |
| 2026-05-05 19:16 | 50.69582 | 5.17705 | 12638 ft | 293 kts | 104° |
| 2026-05-05 19:16 | 50.69140 | 5.20838 | 11735 ft | 292 kts | 104° |
| 2026-05-05 19:16 | 50.68718 | 5.23814 | 11179 ft | 298 kts | 104° |
| 2026-05-05 19:17 | 50.68267 | 5.26985 | 10826 ft | 294 kts | 103° |
| 2026-05-05 19:17 | 50.67823 | 5.30115 | 10514 ft | 291 kts | 103° |
| 2026-05-05 19:17 | 50.67386 | 5.33187 | 10311 ft | 278 kts | 103° |
| 2026-05-05 19:17 | 50.67180 | 5.34630 | 10183 ft | 267 kts | 103° |
| 2026-05-05 19:18 | 50.66775 | 5.37460 | 9695 ft | 255 kts | 103° |
| 2026-05-05 19:18 | 50.66389 | 5.40149 | 9108 ft | 246 kts | 103° |
| 2026-05-05 19:18 | 50.66024 | 5.42671 | 9149 ft | 234 kts | 105° |
| 2026-05-05 19:18 | 50.65298 | 5.44874 | 9156 ft | 233 kts | 137° |
| 2026-05-05 19:19 | 50.63862 | 5.46049 | 9069 ft | 236 kts | 172° |
| 2026-05-05 19:19 | 50.62251 | 5.45786 | 8792 ft | 232 kts | 195° |
| 2026-05-05 19:19 | 50.60692 | 5.45120 | 8533 ft | 232 kts | 195° |
| 2026-05-05 19:19 | 50.59165 | 5.44471 | 8272 ft | 230 kts | 195° |
| 2026-05-05 19:20 | 50.57635 | 5.43821 | 8011 ft | 225 kts | 194° |
| 2026-05-05 19:20 | 50.56127 | 5.43182 | 7765 ft | 224 kts | 194° |
| 2026-05-05 19:20 | 50.54727 | 5.42592 | 7531 ft | 224 kts | 194° |
| 2026-05-05 19:20 | 50.53233 | 5.41966 | 7291 ft | 223 kts | 194° |
| 2026-05-05 19:21 | 50.51870 | 5.41397 | 7068 ft | 223 kts | 194° |
| 2026-05-05 19:21 | 50.50368 | 5.40771 | 6824 ft | 223 kts | 194° |
| 2026-05-05 19:21 | 50.48862 | 5.40146 | 6579 ft | 224 kts | 194° |
| 2026-05-05 19:21 | 50.47360 | 5.39510 | 6326 ft | 223 kts | 198° |
| 2026-05-05 19:22 | 50.46083 | 5.38239 | 6167 ft | 212 kts | 225° |
| 2026-05-05 19:22 | 50.45059 | 5.36571 | 5961 ft | 218 kts | 225° |
| 2026-05-05 19:22 | 50.44347 | 5.35459 | 5786 ft | 218 kts | 224° |
| 2026-05-05 19:22 | 50.42943 | 5.33236 | 5420 ft | 207 kts | 231° |
| 2026-05-05 19:23 | 50.42417 | 5.31270 | 5190 ft | 202 kts | 269° |
| 2026-05-05 19:23 | 50.42717 | 5.29137 | 5056 ft | 201 kts | 300° |
| 2026-05-05 19:23 | 50.43253 | 5.27935 | 4998 ft | 198 kts | 314° |
| 2026-05-05 19:23 | 50.44540 | 5.25895 | 4881 ft | 199 kts | 318° |
| 2026-05-05 19:24 | 50.45199 | 5.24888 | 4803 ft | 200 kts | 319° |
| 2026-05-05 19:24 | 50.46196 | 5.23360 | 4717 ft | 200 kts | 318° |
| 2026-05-05 19:24 | 50.47289 | 5.22043 | 4462 ft | 197 kts | 342° |
| 2026-05-05 19:24 | 50.48588 | 5.21980 | 4301 ft | 184 kts | 24° |
| 2026-05-05 19:25 | 50.49648 | 5.23012 | 4139 ft | 178 kts | 38° |
| 2026-05-05 19:25 | 50.50643 | 5.24218 | 3887 ft | 182 kts | 39° |
| 2026-05-05 19:25 | 50.51624 | 5.25444 | 3627 ft | 177 kts | 40° |
| 2026-05-05 19:25 | 50.52509 | 5.26703 | 3397 ft | 165 kts | 44° |
| 2026-05-05 19:26 | 50.53307 | 5.27930 | 3212 ft | 157 kts | 45° |
| 2026-05-05 19:26 | 50.54069 | 5.29121 | 3180 ft | 157 kts | 45° |
| 2026-05-05 19:26 | 50.54840 | 5.30337 | 2961 ft | 157 kts | 45° |
| 2026-05-05 19:26 | 50.55575 | 5.31497 | 2782 ft | 142 kts | 45° |
| 2026-05-05 19:27 | 50.56255 | 5.32572 | 2585 ft | 137 kts | 45° |
| 2026-05-05 19:27 | 50.56930 | 5.33638 | 2392 ft | 137 kts | 45° |
| 2026-05-05 19:27 | 50.57536 | 5.34594 | 2213 ft | 135 kts | 45° |
| 2026-05-05 19:27 | 50.58192 | 5.35632 | 2053 ft | 133 kts | 44° |
| 2026-05-05 19:28 | 50.58810 | 5.36609 | 1863 ft | 133 kts | 45° |
| 2026-05-05 19:28 | 50.59464 | 5.37642 | 1694 ft | 133 kts | 44° |
| 2026-05-05 19:28 | 50.60103 | 5.38653 | 1506 ft | 129 kts | 44° |
| 2026-05-05 19:28 | 50.60744 | 5.39665 | 1319 ft | 134 kts | 44° |
| 2026-05-05 19:29 | 50.61409 | 5.40720 | 1133 ft | 138 kts | 45° |
| 2026-05-05 19:29 | 50.62092 | 5.41803 | 948 ft | 139 kts | 44° |
| 2026-05-05 19:29 | 50.62767 | 5.42873 | 739 ft | 137 kts | 44° |
| 2026-05-05 19:29 | 50.63431 | 5.43922 | 643 ft | 128 kts | 43° |
| 2026-05-05 19:30 | 50.63968 | 5.44767 | 624 ft | 84 kts | 45° |
| 2026-05-05 19:30 | 50.64248 | 5.45214 | 602 ft | 31 kts | 46° |
| 2026-05-05 19:30 | 50.64381 | 5.45438 | 620 ft | 22 kts | 63° |
| 2026-05-05 19:30 | 50.64389 | 5.45671 | 622 ft | 22 kts | 90° |
| 2026-05-05 19:31 | 50.64353 | 5.45757 | 627 ft | 6 kts | 225° |
| 2026-05-05 19:31 | 50.64322 | 5.45697 | 633 ft | 11 kts | 229° |
| 2026-05-05 19:31 | 50.64247 | 5.45576 | 632 ft | 20 kts | 225° |
| 2026-05-05 19:31 | 50.64125 | 5.45383 | 633 ft | 29 kts | 225° |
| 2026-05-05 19:32 | 50.63980 | 5.45152 | 633 ft | 30 kts | 225° |
| 2026-05-05 19:32 | 50.63833 | 5.44920 | 631 ft | 30 kts | 225° |
| 2026-05-05 19:32 | 50.63689 | 5.44691 | 633 ft | 30 kts | 225° |
| 2026-05-05 19:32 | 50.63542 | 5.44460 | 634 ft | 30 kts | 225° |
| 2026-05-05 19:33 | 50.63395 | 5.44230 | 643 ft | 30 kts | 225° |
| 2026-05-05 19:33 | 50.63257 | 5.44008 | 651 ft | 26 kts | 225° |
| 2026-05-05 19:33 | 50.63199 | 5.43892 | 650 ft | 12 kts | 260° |
| 2026-05-05 19:33 | 50.63257 | 5.43833 | 649 ft | 12 kts | 18° |
| 2026-05-05 19:34 | 50.63337 | 5.43873 | 644 ft | 12 kts | 5° |
| 2026-05-05 19:34 | 50.63425 | 5.43814 | 649 ft | 18 kts | 316° |
| 2026-05-05 19:34 | 50.63546 | 5.43627 | 643 ft | 26 kts | 315° |
| 2026-05-05 19:35 | 50.63638 | 5.43482 | 647 ft | 0 kts | 315° |
| 2026-05-05 19:35 | 50.63639 | 5.43481 | 647 ft | 1 kts | 315° |
| 2026-05-05 19:35 | 50.63644 | 5.43472 | 650 ft | 0 kts | 315° |
| 2026-05-05 19:36 | 50.63645 | 5.43471 | 650 ft | 1 kts | 315° |
| 2026-05-05 19:36 | 50.63671 | 5.43431 | 645 ft | 9 kts | 314° |
| 2026-05-05 19:36 | 50.63714 | 5.43363 | 648 ft | 8 kts | 315° |
| 2026-05-05 19:36 | 50.63734 | 5.43331 | 646 ft | 1 kts | 315° |
| 2026-05-05 19:37 | 50.63735 | 5.43329 | 646 ft | 0 kts | 315° |